Lakefront, LA

7:36 AM CST en Diciembre 19, 2014 (GMT -0600)
Lakefront | Change Station
CLOSE
Current Station
Aeropuerto
Location: New Orleans Lakefront,
Altura: 10 ft
Estaciones meteorológicas cercanas

Alt 10 ft 30.05 °N, 90.03 °W | Updated 13 minutes ago

Overcast
Nublado
58 ° F
Sensación térmica 58 ° F
N
14
Viento Variable Viento desde NE

Hoy
Alta -- | Baja -- ° F
--% Posibilidad de precipitaciones
Ayer
Alta -- | Baja -- ° F
Precip. -- pul
6:50 AM 5:03 PM
Creciente menguante, 8% visible
Presión 30.15 pul
Visibilidad 10.0 Millas
Nubes Muy nublado 2100 ft
Nublado 3000 ft
Punto de rocío 51 ° F
Humedad 78%
Precipitaciones 0.02 pul
Espesor de la nieve No disponible.
UV 0 de una escala de 12
Polen .60 de una escala de 12
Calidad del aire No disponible.
Flu Activity No disponible.
SPECI KNEW 191323Z AUTO 05012KT 10SM BKN021 OVC030 14/11 A3015 RMK AO2 RAB10E19 P0000 T01440106 TSNO

More Conditions Fewer Conditions

Presión 30.15 pul
Visibilidad 10.0 Millas
Nubes Muy nublado 2100 ft
Nublado 3000 ft
Punto de rocío 51 ° F
Humedad 78%
Precipitaciones 0.02 pul
Espesor de la nieve No disponible.
UV 0 de una escala de 12
Polen .60 de una escala de 12
Calidad del aire No disponible.
Flu Activity No disponible.
SPECI KNEW 191323Z AUTO 05012KT 10SM BKN021 OVC030 14/11 A3015 RMK AO2 RAB10E19 P0000 T01440106 TSNO

More Conditions Fewer Conditions

10-Day Weather Forecast

Almanac

Astronomía

Dec. 19, 2014 Salida Puesta
Hora real
Crepúsculo civil
Crepúsculo náutico
Crepúsculo astronómico
Luna
Horas de luz
Horas de luz
Tomorrow will be .
, % of the Moon is Illuminated

Extremos de hoy

Máximos del estado Bajos del estado

Community

WunderPhotos

Upload Photos

1,778,987 ¡fotos cargadas!

WunderBlogs® & News

Nearby

Calidad del aire

  Calidad del aire Índice AQ Contaminante
Not available.

Grosos de nieve

Estación Profundido Altura

Actividad de terremotos

Ciudad Distance Mag. Tiempo y dato
Magnitud mínima muestra es 2,5.

Temperaturas de aguas costeras

Lugar Temperatura

Estaciones meteorológicas cercanas